createdAt,value
2018-05-18T00:01:04.716Z,4.90
2018-05-18T00:03:32.168Z,4.60
2018-05-18T00:05:59.683Z,5.23
2018-05-18T00:08:27.134Z,5.10
2018-05-18T00:10:54.627Z,5.03
2018-05-18T00:13:22.874Z,5.63
2018-05-18T00:15:50.372Z,6.00
2018-05-18T00:18:17.842Z,5.27
2018-05-18T00:20:45.333Z,4.20
2018-05-18T00:23:12.807Z,5.17
2018-05-18T00:25:40.304Z,4.60
2018-05-18T00:28:07.790Z,5.23
2018-05-18T00:30:35.306Z,4.67
2018-05-18T00:33:02.780Z,4.67
2018-05-18T00:35:30.263Z,5.40
2018-05-18T00:37:57.720Z,4.97
2018-05-18T00:40:25.243Z,5.60
2018-05-18T00:42:52.740Z,4.90
2018-05-18T00:45:20.222Z,5.37
2018-05-18T00:47:47.722Z,5.27
2018-05-18T00:50:15.192Z,5.20
2018-05-18T00:52:42.699Z,5.83
2018-05-18T00:55:22.056Z,5.63
2018-05-18T00:57:50.313Z,5.33
2018-05-18T01:00:17.790Z,6.07
2018-05-18T01:02:46.073Z,7.00
2018-05-18T01:05:14.319Z,8.47
2018-05-18T01:07:41.825Z,7.00
2018-05-18T01:10:09.306Z,6.10
2018-05-18T01:12:36.813Z,6.33
2018-05-18T01:15:05.045Z,5.43
2018-05-18T01:17:32.555Z,5.87
2018-05-18T01:20:00.790Z,6.13
2018-05-18T01:22:28.297Z,6.20
2018-05-18T01:24:55.771Z,6.00
2018-05-18T01:27:23.261Z,6.37
2018-05-18T01:29:50.729Z,6.43
2018-05-18T01:32:18.204Z,6.40
2018-05-18T01:34:46.454Z,6.60
2018-05-18T01:37:13.939Z,7.07
2018-05-18T01:39:42.203Z,6.60
2018-05-18T01:42:09.675Z,7.03
2018-05-18T01:44:37.936Z,6.50
2018-05-18T01:47:05.397Z,5.77
2018-05-18T01:49:32.904Z,5.97
2018-05-18T01:52:00.398Z,5.23
2018-05-18T01:54:27.891Z,5.37
2018-05-18T01:56:56.134Z,5.43
2018-05-18T01:59:23.623Z,6.03
2018-05-18T02:01:51.855Z,5.20
2018-05-18T02:04:19.351Z,4.97
2018-05-18T02:06:47.608Z,5.60
2018-05-18T02:09:15.134Z,5.50
2018-05-18T02:11:42.600Z,5.40
2018-05-18T02:14:10.082Z,6.03
2018-05-18T02:16:37.561Z,6.13
2018-05-18T02:19:05.784Z,5.60
2018-05-18T02:21:33.266Z,5.53
2018-05-18T02:24:00.745Z,5.60
2018-05-18T02:26:29.017Z,5.30
2018-05-18T02:28:57.264Z,5.97
2018-05-18T02:31:24.757Z,6.20
2018-05-18T02:33:53.013Z,5.70
2018-05-18T02:36:20.534Z,6.03
2018-05-18T02:38:48.008Z,6.67
2018-05-18T02:41:15.504Z,6.20
2018-05-18T02:43:43.752Z,6.10
2018-05-18T02:46:11.250Z,6.53
2018-05-18T02:48:39.517Z,6.57
2018-05-18T02:51:07.825Z,6.83
2018-05-18T02:53:35.309Z,6.20
2018-05-18T02:56:02.784Z,5.90
2018-05-18T02:58:30.283Z,5.97
2018-05-18T03:00:57.747Z,6.60
2018-05-18T03:03:25.240Z,6.90
2018-05-18T03:05:52.703Z,6.37
2018-05-18T03:08:20.202Z,5.90
2018-05-18T03:10:48.446Z,6.47
2018-05-18T03:13:15.933Z,6.63
2018-05-18T03:15:44.179Z,6.40
2018-05-18T03:18:11.697Z,6.63
2018-05-18T03:20:39.177Z,6.97
2018-05-18T03:23:06.646Z,6.77
2018-05-18T03:25:34.204Z,7.23
2018-05-18T03:28:01.692Z,7.23
2018-05-18T03:30:29.258Z,6.80
2018-05-18T03:32:57.515Z,6.47
2018-05-18T03:35:25.522Z,6.47
2018-05-18T03:37:52.992Z,6.70
2018-05-18T03:40:20.483Z,7.30
2018-05-18T03:42:47.976Z,7.57
2018-05-18T03:45:16.248Z,6.53
2018-05-18T03:47:44.494Z,6.43
2018-05-18T03:50:12.766Z,6.13
2018-05-18T03:52:40.262Z,6.57
2018-05-18T03:55:08.530Z,6.43
2018-05-18T03:57:36.026Z,7.37
2018-05-18T04:00:03.591Z,6.83
2018-05-18T04:02:42.989Z,6.97
2018-05-18T04:05:22.342Z,6.60
2018-05-18T04:08:01.750Z,6.97
2018-05-18T04:10:30.042Z,7.90
2018-05-18T04:12:58.268Z,7.90
2018-05-18T04:15:25.765Z,7.57
2018-05-18T04:17:53.241Z,7.77
2018-05-18T04:20:21.510Z,7.70
2018-05-18T04:22:49.751Z,7.83
2018-05-18T04:25:17.216Z,7.07
2018-05-18T04:27:44.713Z,7.27
2018-05-18T04:30:12.969Z,8.17
2018-05-18T04:32:40.449Z,7.20
2018-05-18T04:35:07.932Z,6.90
2018-05-18T04:37:35.429Z,7.43
2018-05-18T04:40:02.907Z,7.13
2018-05-18T04:42:31.180Z,7.53
2018-05-18T04:44:58.653Z,8.17
2018-05-18T04:47:26.171Z,7.77
2018-05-18T04:49:53.632Z,6.70
2018-05-18T04:52:21.151Z,7.30
2018-05-18T04:54:48.634Z,6.87
2018-05-18T04:57:16.149Z,7.73
2018-05-18T04:59:43.626Z,7.37
2018-05-18T05:02:11.121Z,7.20
2018-05-18T05:04:38.625Z,7.47
2018-05-18T05:07:06.093Z,6.67
2018-05-18T05:09:33.623Z,6.50
2018-05-18T05:12:01.855Z,7.23
2018-05-18T05:14:29.343Z,7.83
2018-05-18T05:16:56.853Z,7.73
2018-05-18T05:19:24.359Z,7.63
2018-05-18T05:21:51.831Z,7.70
2018-05-18T05:24:20.144Z,8.50
2018-05-18T05:26:47.601Z,8.27
2018-05-18T05:29:15.116Z,9.10
2018-05-18T05:31:43.352Z,10.20
2018-05-18T05:34:10.870Z,8.53
2018-05-18T05:36:38.431Z,9.57
2018-05-18T05:39:05.823Z,9.47
2018-05-18T05:41:33.332Z,8.73
2018-05-18T05:44:01.708Z,10.50
2018-05-18T05:46:29.988Z,9.20
2018-05-18T05:48:57.482Z,11.43
2018-05-18T05:51:24.978Z,8.97
2018-05-18T05:53:52.474Z,10.17
2018-05-18T05:56:19.986Z,10.37
2018-05-18T05:58:47.464Z,11.30
2018-05-18T06:01:15.744Z,9.90
2018-05-18T06:03:44.004Z,10.77
2018-05-18T06:06:11.486Z,9.10
2018-05-18T06:08:39.784Z,10.43
2018-05-18T06:11:07.332Z,8.50
2018-05-18T06:13:34.877Z,10.90
2018-05-18T06:16:03.130Z,10.90
2018-05-18T06:18:30.645Z,10.63
2018-05-18T06:20:58.136Z,10.27
2018-05-18T06:23:25.669Z,11.23
2018-05-18T06:25:53.147Z,10.93
2018-05-18T06:28:20.651Z,11.67
2018-05-18T06:30:48.184Z,12.00
2018-05-18T06:33:15.729Z,10.30
2018-05-18T06:35:43.255Z,11.63
2018-05-18T06:38:10.765Z,11.57
2018-05-18T06:40:38.321Z,13.23
2018-05-18T06:43:05.880Z,12.17
2018-05-18T06:45:33.421Z,11.97
2018-05-18T06:48:00.899Z,12.40
2018-05-18T06:50:28.417Z,12.03
2018-05-18T06:52:55.923Z,12.83
2018-05-18T06:55:24.221Z,12.87
2018-05-18T06:57:51.771Z,11.57
2018-05-18T07:00:22.099Z,13.20
2018-05-18T07:02:50.919Z,13.07
2018-05-18T07:05:18.508Z,13.37
2018-05-18T07:07:46.011Z,13.33
2018-05-18T07:10:13.599Z,13.20
2018-05-18T07:12:41.119Z,11.87
2018-05-18T07:15:09.379Z,11.53
2018-05-18T07:17:36.909Z,12.90
2018-05-18T07:20:04.391Z,12.87
2018-05-18T07:22:31.902Z,12.90
2018-05-18T07:24:59.381Z,13.43
2018-05-18T07:27:26.900Z,13.10
2018-05-18T07:29:54.388Z,12.30
2018-05-18T07:32:21.864Z,15.63
2018-05-18T07:34:49.533Z,13.82
2018-05-18T07:37:17.042Z,13.05
2018-05-18T07:39:44.565Z,13.82
2018-05-18T07:42:12.044Z,12.23
2018-05-18T07:44:40.364Z,14.27
2018-05-18T07:47:07.848Z,15.20
2018-05-18T07:49:35.385Z,14.10
2018-05-18T07:52:02.867Z,13.65
2018-05-18T07:54:30.387Z,14.73
2018-05-18T07:56:57.896Z,15.55
2018-05-18T07:59:26.329Z,14.70
2018-05-18T08:01:53.797Z,16.15
2018-05-18T08:04:21.300Z,15.10
2018-05-18T08:06:49.559Z,14.70
2018-05-18T08:09:17.109Z,15.00
2018-05-18T08:11:44.615Z,17.67
2018-05-18T08:14:12.105Z,17.52
2018-05-18T08:16:39.650Z,17.23
2018-05-18T08:19:07.163Z,18.33
2018-05-18T08:21:34.707Z,18.05
2018-05-18T08:24:02.197Z,19.12
2018-05-18T08:26:29.697Z,21.58
2018-05-18T08:29:08.999Z,20.98
2018-05-18T08:31:36.511Z,18.90
2018-05-18T08:34:03.995Z,19.67
2018-05-18T08:36:32.265Z,18.35
2018-05-18T08:39:00.533Z,19.35
2018-05-18T08:41:28.823Z,18.98
2018-05-18T08:43:57.066Z,17.48
2018-05-18T08:46:24.623Z,18.85
2018-05-18T08:48:52.103Z,20.25
2018-05-18T08:51:19.586Z,19.87
2018-05-18T08:53:47.099Z,18.30
2018-05-18T08:56:14.585Z,18.75
2018-05-18T08:58:42.865Z,19.65
2018-05-18T09:01:11.118Z,19.15
2018-05-18T09:03:38.637Z,17.90
2018-05-18T09:06:06.117Z,19.25
2018-05-18T09:08:33.641Z,18.55
2018-05-18T09:11:01.127Z,18.20
2018-05-18T09:13:28.666Z,19.33
2018-05-18T09:15:56.239Z,20.48
2018-05-18T09:18:23.727Z,19.48
2018-05-18T09:20:51.233Z,18.75
2018-05-18T09:23:18.740Z,19.55
2018-05-18T09:25:46.255Z,17.40
2018-05-18T09:28:13.788Z,18.05
2018-05-18T09:30:42.061Z,17.85
2018-05-18T09:33:10.396Z,17.08
2018-05-18T09:35:37.928Z,17.20
2018-05-18T09:38:05.444Z,16.40
2018-05-18T09:40:33.714Z,17.65
2018-05-18T09:43:01.214Z,16.23
2018-05-18T09:45:28.744Z,18.35
2018-05-18T09:47:56.989Z,18.02
2018-05-18T09:50:24.520Z,17.90
2018-05-18T09:52:52.006Z,19.85
2018-05-18T09:55:19.603Z,18.00
2018-05-18T09:57:47.778Z,17.33
2018-05-18T10:00:16.068Z,18.98
2018-05-18T10:02:43.575Z,18.33
2018-05-18T10:05:11.108Z,17.65
2018-05-18T10:07:38.609Z,16.42
2018-05-18T10:10:06.119Z,15.90
2018-05-18T10:12:33.620Z,13.40
2018-05-18T10:15:01.133Z,14.75
2018-05-18T10:17:28.653Z,14.45
2018-05-18T10:19:56.193Z,16.02
2018-05-18T10:22:23.686Z,16.37
2018-05-18T10:24:51.934Z,13.60
2018-05-18T10:27:19.474Z,14.10
2018-05-18T10:29:47.006Z,14.00
2018-05-18T10:32:14.514Z,14.45
2018-05-18T10:34:42.006Z,16.42
2018-05-18T10:37:09.571Z,15.05
2018-05-18T10:39:37.074Z,15.25
2018-05-18T10:42:04.602Z,15.65
2018-05-18T10:44:32.094Z,15.30
2018-05-18T10:46:59.604Z,15.15
2018-05-18T10:49:27.155Z,14.15
2018-05-18T10:51:54.729Z,13.13
2018-05-18T10:54:22.214Z,13.23
2018-05-18T10:56:49.753Z,13.48
2018-05-18T10:59:17.255Z,13.55
2018-05-18T11:01:44.798Z,14.32
2018-05-18T11:04:12.340Z,12.90
2018-05-18T11:06:40.009Z,12.75
2018-05-18T11:09:07.540Z,12.65
2018-05-18T11:11:35.030Z,14.20
2018-05-18T11:14:02.614Z,14.60
2018-05-18T11:16:30.140Z,13.15
2018-05-18T11:18:57.782Z,11.43
2018-05-18T11:21:25.352Z,12.52
2018-05-18T11:23:52.862Z,13.98
2018-05-18T11:26:21.179Z,13.85
2018-05-18T11:28:48.706Z,13.10
2018-05-18T11:31:17.035Z,13.50
2018-05-18T11:33:44.581Z,14.30
2018-05-18T11:36:12.061Z,12.57
2018-05-18T11:38:39.628Z,14.30
2018-05-18T11:41:07.121Z,13.95
2018-05-18T11:43:34.640Z,12.82
2018-05-18T11:46:02.151Z,12.73
2018-05-18T11:48:29.716Z,12.52
2018-05-18T11:50:57.203Z,12.85
2018-05-18T11:53:24.785Z,12.15
2018-05-18T11:55:52.299Z,11.90
2018-05-18T11:58:19.807Z,11.30
2018-05-18T12:00:47.321Z,13.30
2018-05-18T12:03:14.905Z,12.80
2018-05-18T12:05:42.469Z,12.52
2018-05-18T12:08:09.970Z,13.35
2018-05-18T12:10:38.243Z,11.82
2018-05-18T12:13:05.747Z,10.82
2018-05-18T12:15:33.297Z,11.70
2018-05-18T12:18:00.765Z,11.48
2018-05-18T12:20:28.384Z,11.48
2018-05-18T12:22:55.785Z,11.57
2018-05-18T12:25:23.304Z,10.77
2018-05-18T12:27:51.577Z,10.07
2018-05-18T12:30:19.858Z,10.43
2018-05-18T12:32:48.107Z,9.70
2018-05-18T12:35:15.623Z,10.13
2018-05-18T12:37:43.119Z,9.52
2018-05-18T12:40:10.599Z,9.50
2018-05-18T12:42:38.862Z,9.98
2018-05-18T12:45:06.344Z,9.70
2018-05-18T12:47:33.854Z,9.88
2018-05-18T12:50:01.401Z,10.18
2018-05-18T12:52:28.924Z,10.23
2018-05-18T12:54:56.445Z,10.90
2018-05-18T12:57:24.765Z,10.25
2018-05-18T12:59:52.276Z,9.57
2018-05-18T13:02:19.792Z,7.72
2018-05-18T13:04:47.295Z,8.23
2018-05-18T13:07:14.805Z,9.43
2018-05-18T13:09:42.276Z,7.97
2018-05-18T13:12:09.788Z,7.93
2018-05-18T13:14:37.276Z,8.45
2018-05-18T13:17:04.795Z,10.57
2018-05-18T13:19:33.056Z,9.38
2018-05-18T13:22:00.630Z,9.63
2018-05-18T13:24:28.152Z,8.93
2018-05-18T13:26:55.665Z,9.02
2018-05-18T13:29:23.942Z,9.43
2018-05-18T13:31:52.241Z,10.05
2018-05-18T13:34:19.796Z,9.60
2018-05-18T13:36:47.316Z,10.10
2018-05-18T13:39:14.869Z,9.75
2018-05-18T13:41:42.418Z,9.48
2018-05-18T13:44:09.980Z,9.88
2018-05-18T13:46:38.318Z,9.43
2018-05-18T13:49:06.581Z,9.18
2018-05-18T13:51:34.091Z,9.77
2018-05-18T13:54:01.692Z,9.30
2018-05-18T13:56:29.251Z,10.48
2018-05-18T13:58:56.783Z,11.50
2018-05-18T14:01:24.381Z,9.40
2018-05-18T14:03:51.915Z,9.40
2018-05-18T14:06:20.159Z,9.75
2018-05-18T14:08:47.664Z,9.90
2018-05-18T14:11:15.931Z,9.40
2018-05-18T14:13:44.250Z,9.02
2018-05-18T14:16:11.736Z,9.80
2018-05-18T14:18:39.227Z,9.55
2018-05-18T14:21:06.741Z,9.15
2018-05-18T14:23:34.229Z,9.93
2018-05-18T14:26:01.751Z,9.20
2018-05-18T14:28:29.263Z,9.35
2018-05-18T14:30:57.716Z,10.10
2018-05-18T14:33:25.202Z,10.32
2018-05-18T14:35:53.515Z,9.60
2018-05-18T14:38:20.985Z,9.45
2018-05-18T14:40:48.496Z,9.75
2018-05-18T14:43:16.760Z,9.60
2018-05-18T14:45:45.075Z,10.02
2018-05-18T14:48:12.579Z,9.52
2018-05-18T14:50:40.063Z,8.70
2018-05-18T14:53:08.359Z,8.93
2018-05-18T14:55:35.841Z,9.05
2018-05-18T14:58:03.373Z,9.23
2018-05-18T15:00:30.944Z,9.70
2018-05-18T15:02:58.501Z,9.50
2018-05-18T15:05:26.077Z,7.47
2018-05-18T15:07:53.603Z,7.72
2018-05-18T15:10:21.104Z,6.78
2018-05-18T15:12:48.682Z,7.25
2018-05-18T15:15:16.174Z,7.57
2018-05-18T15:17:43.708Z,8.98
2018-05-18T15:20:11.199Z,9.82
2018-05-18T15:22:38.744Z,8.75
2018-05-18T15:25:06.979Z,8.95
2018-05-18T15:27:34.472Z,8.27
2018-05-18T15:30:02.775Z,8.50
2018-05-18T15:32:30.284Z,9.68
2018-05-18T15:34:57.866Z,10.05
2018-05-18T15:37:26.201Z,11.00
2018-05-18T15:39:53.628Z,9.65
2018-05-18T15:42:21.121Z,9.23
2018-05-18T15:44:49.020Z,10.13
2018-05-18T15:47:16.526Z,8.65
2018-05-18T15:49:44.813Z,8.68
2018-05-18T15:52:12.286Z,9.63
2018-05-18T15:54:39.939Z,8.88
2018-05-18T15:57:07.449Z,9.07
2018-05-18T15:59:34.988Z,8.50
2018-05-18T16:02:02.480Z,7.15
2018-05-18T16:04:30.046Z,7.10
2018-05-18T16:06:57.545Z,7.55
2018-05-18T16:09:25.064Z,7.30
2018-05-18T16:11:52.556Z,8.27
2018-05-18T16:14:20.067Z,6.30
2018-05-18T16:16:47.580Z,6.23
2018-05-18T16:19:15.104Z,6.80
2018-05-18T16:21:42.603Z,5.75
2018-05-18T16:24:10.107Z,6.00
2018-05-18T16:26:37.667Z,6.40
2018-05-18T16:29:05.159Z,5.93
2018-05-18T16:31:32.681Z,5.40
2018-05-18T16:34:00.256Z,5.85
2018-05-18T16:36:27.823Z,6.10
2018-05-18T16:38:55.311Z,5.87
2018-05-18T16:41:22.848Z,5.82
2018-05-18T16:43:50.428Z,6.75
2018-05-18T16:46:17.949Z,6.03
2018-05-18T16:48:45.613Z,5.97
2018-05-18T16:51:13.155Z,6.40
2018-05-18T16:53:40.669Z,4.80
2018-05-18T16:56:08.191Z,6.43
2018-05-18T16:58:35.700Z,7.23
2018-05-18T17:01:03.173Z,6.90
2018-05-18T17:03:31.444Z,7.47
2018-05-18T17:05:59.696Z,6.97
2018-05-18T17:08:27.230Z,5.83
2018-05-18T17:10:54.709Z,6.03
2018-05-18T17:13:22.221Z,5.90
2018-05-18T17:15:49.739Z,5.87
2018-05-18T17:18:17.242Z,6.40
2018-05-18T17:20:44.718Z,6.30
2018-05-18T17:23:12.214Z,5.60
2018-05-18T17:25:39.725Z,6.03
2018-05-18T17:28:07.240Z,6.20
2018-05-18T17:30:34.713Z,6.60
2018-05-18T17:33:03.043Z,6.40
2018-05-18T17:35:30.538Z,6.33
2018-05-18T17:37:58.796Z,6.70
2018-05-18T17:40:26.301Z,6.50
2018-05-18T17:42:53.792Z,7.43
2018-05-18T17:45:21.395Z,7.70
2018-05-18T17:47:49.639Z,7.90
2018-05-18T17:50:17.151Z,8.00
2018-05-18T17:52:44.626Z,8.40
2018-05-18T17:55:12.131Z,9.00
2018-05-18T17:57:39.628Z,9.03
2018-05-18T18:00:07.129Z,8.93
2018-05-18T18:02:34.619Z,9.40
2018-05-18T18:05:02.920Z,10.00
2018-05-18T18:07:30.403Z,9.50
2018-05-18T18:09:57.873Z,10.73
2018-05-18T18:12:25.412Z,10.43
2018-05-18T18:14:52.899Z,9.40
2018-05-18T18:17:20.447Z,10.73
2018-05-18T18:19:49.547Z,9.73
2018-05-18T18:22:17.074Z,10.20
2018-05-18T18:24:44.737Z,11.03
2018-05-18T18:27:12.280Z,11.23
2018-05-18T18:29:39.857Z,11.13
2018-05-18T18:32:07.375Z,11.33
2018-05-18T18:34:34.858Z,12.07
2018-05-18T18:37:02.392Z,10.97
2018-05-18T18:39:29.908Z,12.27
2018-05-18T18:41:57.412Z,11.47
2018-05-18T18:44:25.663Z,11.17
2018-05-18T18:46:53.236Z,11.67
2018-05-18T18:49:20.748Z,11.50
2018-05-18T18:51:48.259Z,11.30
2018-05-18T18:54:15.772Z,10.70
2018-05-18T18:56:43.255Z,11.87
2018-05-18T18:59:10.788Z,12.40
2018-05-18T19:01:38.268Z,11.67
2018-05-18T19:04:05.791Z,10.90
2018-05-18T19:06:33.317Z,10.77
2018-05-18T19:09:01.597Z,10.93
2018-05-18T19:11:29.874Z,10.83
2018-05-18T19:13:58.244Z,10.73
2018-05-18T19:16:26.489Z,12.07
2018-05-18T19:18:54.095Z,12.30
2018-05-18T19:21:22.345Z,11.47
2018-05-18T19:23:49.853Z,10.57
2018-05-18T19:26:17.343Z,10.83
2018-05-18T19:28:44.987Z,10.03
2018-05-18T19:31:12.487Z,10.20
2018-05-18T19:33:39.973Z,9.63
2018-05-18T19:36:07.493Z,9.83
2018-05-18T19:38:34.998Z,9.73
2018-05-18T19:41:02.966Z,8.83
2018-05-18T19:43:30.476Z,8.90
2018-05-18T19:45:57.969Z,9.40
2018-05-18T19:48:26.272Z,9.60
2018-05-18T19:50:53.736Z,8.77
2018-05-18T19:53:21.232Z,10.27
2018-05-18T19:55:48.730Z,8.60
2018-05-18T19:58:16.203Z,9.23
2018-05-18T20:00:43.711Z,8.77
2018-05-18T20:03:11.226Z,9.40
2018-05-18T20:05:38.725Z,9.10
2018-05-18T20:08:06.218Z,9.23
2018-05-18T20:10:33.740Z,8.80
2018-05-18T20:13:01.232Z,9.17
2018-05-18T20:15:28.756Z,9.53
2018-05-18T20:17:56.239Z,9.60
2018-05-18T20:20:24.522Z,9.50
2018-05-18T20:22:52.059Z,8.80
2018-05-18T20:25:20.312Z,9.60
2018-05-18T20:27:47.835Z,10.90
2018-05-18T20:30:15.459Z,9.20
2018-05-18T20:32:42.946Z,8.70
2018-05-18T20:35:10.432Z,8.07
2018-05-18T20:37:38.664Z,8.63
2018-05-18T20:40:06.197Z,8.80
2018-05-18T20:42:33.699Z,8.70
2018-05-18T20:45:01.244Z,9.47
2018-05-18T20:47:28.722Z,8.00
2018-05-18T20:49:56.199Z,8.07
2018-05-18T20:52:24.475Z,9.47
2018-05-18T20:54:51.948Z,8.60
2018-05-18T20:57:19.463Z,8.20
2018-05-18T20:59:46.935Z,8.27
2018-05-18T21:02:14.473Z,8.23
2018-05-18T21:04:41.952Z,9.13
2018-05-18T21:07:09.472Z,7.57
2018-05-18T21:09:37.756Z,7.77
2018-05-18T21:12:06.008Z,8.67
2018-05-18T21:14:34.006Z,7.73
2018-05-18T21:17:02.238Z,7.77
2018-05-18T21:19:29.750Z,7.30
2018-05-18T21:21:57.222Z,6.87
2018-05-18T21:24:24.825Z,8.57
2018-05-18T21:26:52.319Z,7.07
2018-05-18T21:29:19.823Z,7.67
2018-05-18T21:31:47.314Z,7.50
2018-05-18T21:34:15.638Z,8.27
2018-05-18T21:36:43.129Z,8.33
2018-05-18T21:39:10.668Z,8.63
2018-05-18T21:41:38.154Z,7.87
2018-05-18T21:44:05.655Z,8.73
2018-05-18T21:46:33.163Z,8.73
2018-05-18T21:49:00.654Z,8.97
2018-05-18T21:51:28.917Z,9.37
2018-05-18T21:53:57.173Z,8.63
2018-05-18T21:56:24.692Z,8.83
2018-05-18T21:58:52.200Z,8.80
2018-05-18T22:01:19.721Z,9.37
2018-05-18T22:03:47.222Z,8.97
2018-05-18T22:06:15.503Z,9.47
2018-05-18T22:08:43.773Z,8.77
2018-05-18T22:11:11.321Z,8.80
2018-05-18T22:13:38.837Z,8.53
2018-05-18T22:16:07.124Z,9.10
2018-05-18T22:18:34.624Z,11.13
2018-05-18T22:21:02.150Z,10.17
2018-05-18T22:23:30.085Z,10.37
2018-05-18T22:25:57.612Z,10.57
2018-05-18T22:28:25.130Z,10.30
2018-05-18T22:30:52.645Z,11.20
2018-05-18T22:33:20.879Z,9.90
2018-05-18T22:35:48.379Z,10.53
2018-05-18T22:38:16.750Z,10.50
2018-05-18T22:40:45.058Z,11.23
2018-05-18T22:43:13.446Z,10.20
2018-05-18T22:45:41.020Z,10.03
2018-05-18T22:48:09.010Z,10.57
2018-05-18T22:50:36.486Z,10.13
2018-05-18T22:53:04.006Z,10.00
2018-05-18T22:55:31.502Z,9.60
2018-05-18T22:57:58.996Z,10.07
2018-05-18T23:00:27.352Z,9.50
2018-05-18T23:02:56.170Z,10.07
2018-05-18T23:05:23.672Z,9.70
2018-05-18T23:07:51.916Z,9.60
2018-05-18T23:10:19.482Z,9.07
2018-05-18T23:12:47.012Z,9.03
2018-05-18T23:15:14.499Z,9.20
2018-05-18T23:17:41.998Z,9.73
2018-05-18T23:20:10.109Z,9.50
2018-05-18T23:22:37.637Z,9.10
2018-05-18T23:25:05.883Z,8.77
2018-05-18T23:27:33.390Z,10.03
2018-05-18T23:30:00.899Z,9.53
2018-05-18T23:32:29.203Z,9.50
2018-05-18T23:34:57.467Z,11.20
2018-05-18T23:37:25.010Z,12.47
2018-05-18T23:39:52.504Z,11.10
2018-05-18T23:42:20.737Z,11.00
2018-05-18T23:44:48.269Z,10.30
2018-05-18T23:47:15.753Z,10.37
2018-05-18T23:49:43.256Z,10.97
2018-05-18T23:52:11.499Z,9.43
2018-05-18T23:54:39.020Z,10.23
2018-05-18T23:57:06.556Z,9.67
2018-05-18T23:59:34.926Z,10.93
